Aylett, Virginia
Current Conditions -  °F | °C
As of 12:15 PM on Thursday 23 Oct 2014 (Local Time) from KXSA Reporting Station
Scattered Clouds Scattered Clouds  
Wind Chill: 63°   Ceiling: Unl
Heat Index: 63°   Visibility: 10mi
Dew Point: 41°   Wind: 8mph
Humidity: 44%   Direction: 300°WNW
Pressure: 29.89"   Gusts: NA
Location:  37.79°N, 77.11°W
Report Text: KXSA 231615Z AUTO 30007KT 260V350 10SM SCT037 17/05 A2989 RMK AO2 T01720049
Loading
Personal Weather Stations






























Interactive Weather Map
Tropical Storm Tracking
New forecast layout! Learn more

10-Day Weather Forecast

Advertisements
Track Severe Weather on mobile